Aviation Digital Data Service (ADDS)

Output produced by METARs form (1155 UTC 11 December 2016)
found at http://aviationweather.gov/adds/metars/
 
KBFD 111047Z 1111/1206 20004KT P6SM OVC050 
     FM111200 17005KT 2SM -SN OVC010 
     FM120000 16010KT 2SM -SN OVC007